sensor_id;sensor_type;location;lat;lon;timestamp;temperature;humidity
4548;DHT22;2286;51.570;7.090;2023-03-24T00:01:57;11.40;99.90
4548;DHT22;2286;51.570;7.090;2023-03-24T00:04:24;11.40;99.90
4548;DHT22;2286;51.570;7.090;2023-03-24T00:06:52;11.40;99.90
4548;DHT22;2286;51.570;7.090;2023-03-24T00:09:19;11.30;99.90
4548;DHT22;2286;51.570;7.090;2023-03-24T00:11:46;11.40;99.90
4548;DHT22;2286;51.570;7.090;2023-03-24T00:14:14;11.30;99.90
4548;DHT22;2286;51.570;7.090;2023-03-24T00:16:41;11.40;99.90
4548;DHT22;2286;51.570;7.090;2023-03-24T00:19:08;11.30;99.90
4548;DHT22;2286;51.570;7.090;2023-03-24T00:21:35;11.30;1.00
4548;DHT22;2286;51.570;7.090;2023-03-24T00:24:04;11.40;1.00
4548;DHT22;2286;51.570;7.090;2023-03-24T00:26:32;11.40;1.00
4548;DHT22;2286;51.570;7.090;2023-03-24T00:29:02;11.40;1.00
4548;DHT22;2286;51.570;7.090;2023-03-24T00:31:31;11.40;1.00
4548;DHT22;2286;51.570;7.090;2023-03-24T00:33:58;11.40;1.00
4548;DHT22;2286;51.570;7.090;2023-03-24T00:36:27;11.40;1.00
4548;DHT22;2286;51.570;7.090;2023-03-24T00:38:55;11.40;1.00
4548;DHT22;2286;51.570;7.090;2023-03-24T00:41:22;11.40;1.00
4548;DHT22;2286;51.570;7.090;2023-03-24T00:43:54;11.40;1.00
4548;DHT22;2286;51.570;7.090;2023-03-24T00:46:21;11.40;1.00
4548;DHT22;2286;51.570;7.090;2023-03-24T00:48:56;11.50;1.00
4548;DHT22;2286;51.570;7.090;2023-03-24T00:51:28;11.50;1.00
4548;DHT22;2286;51.570;7.090;2023-03-24T00:53:56;11.50;99.90
4548;DHT22;2286;51.570;7.090;2023-03-24T00:56:25;11.50;99.90
4548;DHT22;2286;51.570;7.090;2023-03-24T00:58:52;11.50;99.90
4548;DHT22;2286;51.570;7.090;2023-03-24T01:01:23;11.50;99.90
4548;DHT22;2286;51.570;7.090;2023-03-24T01:03:50;11.50;99.90
4548;DHT22;2286;51.570;7.090;2023-03-24T01:06:18;11.50;99.90
4548;DHT22;2286;51.570;7.090;2023-03-24T01:08:48;11.50;1.00
4548;DHT22;2286;51.570;7.090;2023-03-24T01:11:20;11.40;38.90
4548;DHT22;2286;51.570;7.090;2023-03-24T01:13:49;11.50;99.90
4548;DHT22;2286;51.570;7.090;2023-03-24T01:16:16;11.50;99.90
4548;DHT22;2286;51.570;7.090;2023-03-24T01:18:43;11.50;1.00
4548;DHT22;2286;51.570;7.090;2023-03-24T01:21:11;11.50;1.00
4548;DHT22;2286;51.570;7.090;2023-03-24T01:23:40;11.50;1.00
4548;DHT22;2286;51.570;7.090;2023-03-24T01:26:09;11.60;1.00
4548;DHT22;2286;51.570;7.090;2023-03-24T01:28:37;11.60;1.00
4548;DHT22;2286;51.570;7.090;2023-03-24T01:31:06;11.60;26.70
4548;DHT22;2286;51.570;7.090;2023-03-24T01:33:34;11.60;1.00
4548;DHT22;2286;51.570;7.090;2023-03-24T01:36:02;11.50;64.50
4548;DHT22;2286;51.570;7.090;2023-03-24T01:38:29;11.60;99.90
4548;DHT22;2286;51.570;7.090;2023-03-24T01:40:57;11.60;99.90
4548;DHT22;2286;51.570;7.090;2023-03-24T01:43:26;11.60;99.90
4548;DHT22;2286;51.570;7.090;2023-03-24T01:46:14;11.60;1.00
4548;DHT22;2286;51.570;7.090;2023-03-24T01:48:45;11.60;1.00
4548;DHT22;2286;51.570;7.090;2023-03-24T01:51:17;11.60;99.90
4548;DHT22;2286;51.570;7.090;2023-03-24T01:53:48;11.70;99.90
4548;DHT22;2286;51.570;7.090;2023-03-24T01:56:18;11.70;1.00
4548;DHT22;2286;51.570;7.090;2023-03-24T01:58:49;11.70;1.00
4548;DHT22;2286;51.570;7.090;2023-03-24T02:01:17;11.60;1.00
4548;DHT22;2286;51.570;7.090;2023-03-24T02:03:45;11.70;1.00
4548;DHT22;2286;51.570;7.090;2023-03-24T02:06:12;11.70;40.40
4548;DHT22;2286;51.570;7.090;2023-03-24T02:08:44;11.70;99.90
4548;DHT22;2286;51.570;7.090;2023-03-24T02:11:13;11.70;35.70
4548;DHT22;2286;51.570;7.090;2023-03-24T02:13:41;11.70;99.90
4548;DHT22;2286;51.570;7.090;2023-03-24T02:16:16;11.70;1.00
4548;DHT22;2286;51.570;7.090;2023-03-24T02:18:52;11.70;99.90
4548;DHT22;2286;51.570;7.090;2023-03-24T02:21:54;11.70;99.90
4548;DHT22;2286;51.570;7.090;2023-03-24T02:28:02;11.60;18.30
4548;DHT22;2286;51.570;7.090;2023-03-24T02:30:43;11.70;1.00
4548;DHT22;2286;51.570;7.090;2023-03-24T02:36:40;11.70;99.90
4548;DHT22;2286;51.570;7.090;2023-03-24T02:39:36;11.70;1.00
4548;DHT22;2286;51.570;7.090;2023-03-24T02:42:10;11.70;99.90
4548;DHT22;2286;51.570;7.090;2023-03-24T02:44:44;11.60;99.90
4548;DHT22;2286;51.570;7.090;2023-03-24T02:47:17;11.60;1.00
4548;DHT22;2286;51.570;7.090;2023-03-24T02:49:50;11.60;99.90
4548;DHT22;2286;51.570;7.090;2023-03-24T02:52:27;11.60;1.00
4548;DHT22;2286;51.570;7.090;2023-03-24T02:55:01;11.70;1.00
4548;DHT22;2286;51.570;7.090;2023-03-24T02:57:32;11.70;99.90
4548;DHT22;2286;51.570;7.090;2023-03-24T03:00:04;11.70;99.90
4548;DHT22;2286;51.570;7.090;2023-03-24T03:02:36;11.70;99.90
4548;DHT22;2286;51.570;7.090;2023-03-24T03:05:07;11.70;99.90
4548;DHT22;2286;51.570;7.090;2023-03-24T03:07:39;11.70;99.90
4548;DHT22;2286;51.570;7.090;2023-03-24T03:10:14;11.80;99.90
4548;DHT22;2286;51.570;7.090;2023-03-24T03:12:43;11.70;99.90
4548;DHT22;2286;51.570;7.090;2023-03-24T03:15:14;11.80;99.90
4548;DHT22;2286;51.570;7.090;2023-03-24T03:17:45;11.80;1.00
4548;DHT22;2286;51.570;7.090;2023-03-24T03:20:17;11.80;99.90
4548;DHT22;2286;51.570;7.090;2023-03-24T03:22:48;11.80;1.00
4548;DHT22;2286;51.570;7.090;2023-03-24T03:25:21;11.80;1.00
4548;DHT22;2286;51.570;7.090;2023-03-24T03:27:51;11.90;1.00
4548;DHT22;2286;51.570;7.090;2023-03-24T03:30:23;11.90;5.40
4548;DHT22;2286;51.570;7.090;2023-03-24T03:32:55;12.00;1.00
4548;DHT22;2286;51.570;7.090;2023-03-24T03:35:29;12.00;1.00
4548;DHT22;2286;51.570;7.090;2023-03-24T03:38:03;12.00;99.90
4548;DHT22;2286;51.570;7.090;2023-03-24T03:40:39;12.10;99.90
4548;DHT22;2286;51.570;7.090;2023-03-24T03:43:07;12.10;9.50
4548;DHT22;2286;51.570;7.090;2023-03-24T03:45:35;12.10;1.00
4548;DHT22;2286;51.570;7.090;2023-03-24T03:48:02;12.20;99.90
4548;DHT22;2286;51.570;7.090;2023-03-24T03:50:30;12.20;1.00
4548;DHT22;2286;51.570;7.090;2023-03-24T03:52:57;12.20;1.00
4548;DHT22;2286;51.570;7.090;2023-03-24T03:55:26;12.30;1.00
4548;DHT22;2286;51.570;7.090;2023-03-24T03:57:55;12.30;1.00
4548;DHT22;2286;51.570;7.090;2023-03-24T04:00:22;12.30;99.90
4548;DHT22;2286;51.570;7.090;2023-03-24T04:03:11;12.40;99.90
4548;DHT22;2286;51.570;7.090;2023-03-24T04:05:51;12.40;94.50
4548;DHT22;2286;51.570;7.090;2023-03-24T04:08:29;12.50;1.00
4548;DHT22;2286;51.570;7.090;2023-03-24T04:11:36;12.50;1.00
4548;DHT22;2286;51.570;7.090;2023-03-24T04:14:26;12.50;1.00
4548;DHT22;2286;51.570;7.090;2023-03-24T04:17:00;12.50;1.00
4548;DHT22;2286;51.570;7.090;2023-03-24T04:19:38;12.50;80.10
4548;DHT22;2286;51.570;7.090;2023-03-24T04:22:22;12.60;99.90
4548;DHT22;2286;51.570;7.090;2023-03-24T04:24:53;12.60;53.40
4548;DHT22;2286;51.570;7.090;2023-03-24T04:27:26;12.70;1.00
4548;DHT22;2286;51.570;7.090;2023-03-24T04:30:05;12.70;1.00
4548;DHT22;2286;51.570;7.090;2023-03-24T04:32:44;12.70;1.00
4548;DHT22;2286;51.570;7.090;2023-03-24T04:35:19;12.70;1.00
4548;DHT22;2286;51.570;7.090;2023-03-24T04:37:52;12.60;1.00
4548;DHT22;2286;51.570;7.090;2023-03-24T04:40:20;12.50;99.90
4548;DHT22;2286;51.570;7.090;2023-03-24T04:42:50;12.50;1.00
4548;DHT22;2286;51.570;7.090;2023-03-24T04:45:20;12.50;1.00
4548;DHT22;2286;51.570;7.090;2023-03-24T04:47:52;12.40;1.00
4548;DHT22;2286;51.570;7.090;2023-03-24T04:50:29;12.30;1.00
4548;DHT22;2286;51.570;7.090;2023-03-24T04:52:57;12.30;1.00
4548;DHT22;2286;51.570;7.090;2023-03-24T04:55:54;12.50;99.90
4548;DHT22;2286;51.570;7.090;2023-03-24T04:58:23;12.40;99.90
4548;DHT22;2286;51.570;7.090;2023-03-24T05:00:51;12.40;99.90
4548;DHT22;2286;51.570;7.090;2023-03-24T05:03:20;12.40;99.90
4548;DHT22;2286;51.570;7.090;2023-03-24T05:05:49;12.30;99.90
4548;DHT22;2286;51.570;7.090;2023-03-24T05:08:17;12.30;99.90
4548;DHT22;2286;51.570;7.090;2023-03-24T05:10:45;12.40;1.00
4548;DHT22;2286;51.570;7.090;2023-03-24T05:13:13;12.30;1.00
4548;DHT22;2286;51.570;7.090;2023-03-24T05:15:40;12.30;1.00
4548;DHT22;2286;51.570;7.090;2023-03-24T05:18:09;12.30;1.00
4548;DHT22;2286;51.570;7.090;2023-03-24T05:20:36;12.20;1.00
4548;DHT22;2286;51.570;7.090;2023-03-24T05:23:03;12.20;99.90
4548;DHT22;2286;51.570;7.090;2023-03-24T05:25:31;12.00;99.90
4548;DHT22;2286;51.570;7.090;2023-03-24T05:27:58;12.00;99.90
4548;DHT22;2286;51.570;7.090;2023-03-24T05:30:25;11.80;99.90
4548;DHT22;2286;51.570;7.090;2023-03-24T05:32:52;11.80;99.90
4548;DHT22;2286;51.570;7.090;2023-03-24T05:35:21;11.80;99.90
4548;DHT22;2286;51.570;7.090;2023-03-24T05:37:49;11.70;99.90
4548;DHT22;2286;51.570;7.090;2023-03-24T05:40:16;11.60;93.30
4548;DHT22;2286;51.570;7.090;2023-03-24T05:42:44;11.60;49.40
4548;DHT22;2286;51.570;7.090;2023-03-24T05:45:11;11.50;74.80
4548;DHT22;2286;51.570;7.090;2023-03-24T05:47:38;11.30;94.60
4548;DHT22;2286;51.570;7.090;2023-03-24T05:50:06;11.30;97.80
4548;DHT22;2286;51.570;7.090;2023-03-24T05:52:35;11.30;46.90
4548;DHT22;2286;51.570;7.090;2023-03-24T05:55:03;11.30;59.00
4548;DHT22;2286;51.570;7.090;2023-03-24T05:57:30;11.20;47.80
4548;DHT22;2286;51.570;7.090;2023-03-24T05:59:59;11.10;74.90
4548;DHT22;2286;51.570;7.090;2023-03-24T06:02:26;10.90;81.50
4548;DHT22;2286;51.570;7.090;2023-03-24T06:04:53;10.90;67.70
4548;DHT22;2286;51.570;7.090;2023-03-24T06:07:22;10.90;1.00
4548;DHT22;2286;51.570;7.090;2023-03-24T06:09:52;10.90;1.00
4548;DHT22;2286;51.570;7.090;2023-03-24T06:12:22;10.90;1.00
4548;DHT22;2286;51.570;7.090;2023-03-24T06:14:50;10.90;1.00
4548;DHT22;2286;51.570;7.090;2023-03-24T06:17:17;10.90;1.00
4548;DHT22;2286;51.570;7.090;2023-03-24T06:19:46;10.80;1.00
4548;DHT22;2286;51.570;7.090;2023-03-24T06:22:15;10.80;1.00
4548;DHT22;2286;51.570;7.090;2023-03-24T06:24:43;10.70;1.00
4548;DHT22;2286;51.570;7.090;2023-03-24T06:27:13;10.60;1.00
4548;DHT22;2286;51.570;7.090;2023-03-24T06:29:41;10.60;1.00
4548;DHT22;2286;51.570;7.090;2023-03-24T06:32:08;10.50;1.00
4548;DHT22;2286;51.570;7.090;2023-03-24T06:34:36;10.50;1.00
4548;DHT22;2286;51.570;7.090;2023-03-24T06:37:05;10.50;99.90
4548;DHT22;2286;51.570;7.090;2023-03-24T06:39:32;10.50;99.90
4548;DHT22;2286;51.570;7.090;2023-03-24T06:41:59;10.50;99.90
4548;DHT22;2286;51.570;7.090;2023-03-24T06:44:29;10.50;99.90
4548;DHT22;2286;51.570;7.090;2023-03-24T06:46:56;10.50;99.90
4548;DHT22;2286;51.570;7.090;2023-03-24T06:49:23;10.50;99.90
4548;DHT22;2286;51.570;7.090;2023-03-24T06:51:51;10.60;99.90
4548;DHT22;2286;51.570;7.090;2023-03-24T06:54:18;10.70;99.90
4548;DHT22;2286;51.570;7.090;2023-03-24T06:56:46;10.70;99.90
4548;DHT22;2286;51.570;7.090;2023-03-24T06:59:13;10.70;99.90
4548;DHT22;2286;51.570;7.090;2023-03-24T07:01:43;10.70;99.90
4548;DHT22;2286;51.570;7.090;2023-03-24T07:04:12;10.70;99.90
4548;DHT22;2286;51.570;7.090;2023-03-24T07:06:39;10.80;99.90
4548;DHT22;2286;51.570;7.090;2023-03-24T07:09:07;10.80;99.90
4548;DHT22;2286;51.570;7.090;2023-03-24T07:11:34;10.80;99.90
4548;DHT22;2286;51.570;7.090;2023-03-24T07:14:01;10.80;99.90
4548;DHT22;2286;51.570;7.090;2023-03-24T07:16:28;10.80;99.90
4548;DHT22;2286;51.570;7.090;2023-03-24T07:18:57;10.90;99.90
4548;DHT22;2286;51.570;7.090;2023-03-24T07:21:24;10.90;99.90
4548;DHT22;2286;51.570;7.090;2023-03-24T07:23:51;10.90;99.90
4548;DHT22;2286;51.570;7.090;2023-03-24T07:26:18;10.90;99.90
4548;DHT22;2286;51.570;7.090;2023-03-24T07:28:45;10.90;99.90
4548;DHT22;2286;51.570;7.090;2023-03-24T07:31:12;10.90;99.90
4548;DHT22;2286;51.570;7.090;2023-03-24T07:33:40;10.90;99.90
4548;DHT22;2286;51.570;7.090;2023-03-24T07:36:08;10.90;99.90
4548;DHT22;2286;51.570;7.090;2023-03-24T07:38:35;11.00;99.90
4548;DHT22;2286;51.570;7.090;2023-03-24T07:41:02;11.10;99.90
4548;DHT22;2286;51.570;7.090;2023-03-24T07:43:30;11.10;99.90
4548;DHT22;2286;51.570;7.090;2023-03-24T07:45:57;11.10;99.90
4548;DHT22;2286;51.570;7.090;2023-03-24T07:48:24;11.20;99.90
4548;DHT22;2286;51.570;7.090;2023-03-24T07:50:52;11.20;99.90
4548;DHT22;2286;51.570;7.090;2023-03-24T07:53:21;11.20;99.90
4548;DHT22;2286;51.570;7.090;2023-03-24T07:55:48;11.30;99.90
4548;DHT22;2286;51.570;7.090;2023-03-24T07:58:15;11.30;99.90
4548;DHT22;2286;51.570;7.090;2023-03-24T08:00:42;11.40;99.90
4548;DHT22;2286;51.570;7.090;2023-03-24T08:03:11;11.40;99.90
4548;DHT22;2286;51.570;7.090;2023-03-24T08:05:39;11.50;99.90
4548;DHT22;2286;51.570;7.090;2023-03-24T08:08:07;11.50;99.90
4548;DHT22;2286;51.570;7.090;2023-03-24T08:10:35;11.60;99.90
4548;DHT22;2286;51.570;7.090;2023-03-24T08:13:02;11.60;99.90
4548;DHT22;2286;51.570;7.090;2023-03-24T08:15:30;11.80;99.90
4548;DHT22;2286;51.570;7.090;2023-03-24T08:17:59;11.80;99.90
4548;DHT22;2286;51.570;7.090;2023-03-24T08:20:26;11.90;99.90
4548;DHT22;2286;51.570;7.090;2023-03-24T08:22:54;12.00;99.90
4548;DHT22;2286;51.570;7.090;2023-03-24T08:25:23;12.20;99.90
4548;DHT22;2286;51.570;7.090;2023-03-24T08:27:53;12.20;99.90
4548;DHT22;2286;51.570;7.090;2023-03-24T08:30:22;12.30;99.90
4548;DHT22;2286;51.570;7.090;2023-03-24T08:32:52;12.20;99.90
4548;DHT22;2286;51.570;7.090;2023-03-24T08:35:22;12.30;99.90
4548;DHT22;2286;51.570;7.090;2023-03-24T08:37:49;12.30;99.90
4548;DHT22;2286;51.570;7.090;2023-03-24T08:40:19;12.40;99.90
4548;DHT22;2286;51.570;7.090;2023-03-24T08:42:50;12.40;99.90
4548;DHT22;2286;51.570;7.090;2023-03-24T08:45:20;12.30;99.90
4548;DHT22;2286;51.570;7.090;2023-03-24T08:47:49;12.40;99.90
4548;DHT22;2286;51.570;7.090;2023-03-24T08:50:18;12.30;99.90
4548;DHT22;2286;51.570;7.090;2023-03-24T08:52:46;12.30;99.90
4548;DHT22;2286;51.570;7.090;2023-03-24T08:55:14;12.30;99.90
4548;DHT22;2286;51.570;7.090;2023-03-24T08:57:42;12.20;99.90
4548;DHT22;2286;51.570;7.090;2023-03-24T09:00:11;12.40;99.90
4548;DHT22;2286;51.570;7.090;2023-03-24T09:02:48;12.70;99.90
4548;DHT22;2286;51.570;7.090;2023-03-24T09:05:18;12.90;99.90
4548;DHT22;2286;51.570;7.090;2023-03-24T09:07:46;13.00;99.90
4548;DHT22;2286;51.570;7.090;2023-03-24T09:10:14;12.90;99.90
4548;DHT22;2286;51.570;7.090;2023-03-24T09:12:42;12.80;99.90
4548;DHT22;2286;51.570;7.090;2023-03-24T09:15:11;12.70;99.90
4548;DHT22;2286;51.570;7.090;2023-03-24T09:17:39;12.80;99.90
4548;DHT22;2286;51.570;7.090;2023-03-24T09:20:11;13.00;99.90
4548;DHT22;2286;51.570;7.090;2023-03-24T09:22:39;13.10;99.90
4548;DHT22;2286;51.570;7.090;2023-03-24T09:25:08;13.30;99.90
4548;DHT22;2286;51.570;7.090;2023-03-24T09:27:36;13.50;99.90
4548;DHT22;2286;51.570;7.090;2023-03-24T09:30:05;13.30;99.90
4548;DHT22;2286;51.570;7.090;2023-03-24T09:32:32;13.40;99.90
4548;DHT22;2286;51.570;7.090;2023-03-24T09:35:00;13.70;99.90
4548;DHT22;2286;51.570;7.090;2023-03-24T09:37:32;13.90;99.90
4548;DHT22;2286;51.570;7.090;2023-03-24T09:39:59;13.90;99.90
4548;DHT22;2286;51.570;7.090;2023-03-24T09:42:31;13.90;99.90
4548;DHT22;2286;51.570;7.090;2023-03-24T09:45:02;13.80;99.90
4548;DHT22;2286;51.570;7.090;2023-03-24T09:47:35;13.80;99.90
4548;DHT22;2286;51.570;7.090;2023-03-24T09:50:07;13.90;99.90
4548;DHT22;2286;51.570;7.090;2023-03-24T09:52:40;13.80;99.90
4548;DHT22;2286;51.570;7.090;2023-03-24T09:55:12;13.80;99.90
4548;DHT22;2286;51.570;7.090;2023-03-24T09:57:44;13.90;99.90
4548;DHT22;2286;51.570;7.090;2023-03-24T10:00:17;14.00;99.90
4548;DHT22;2286;51.570;7.090;2023-03-24T10:02:45;14.10;99.90
4548;DHT22;2286;51.570;7.090;2023-03-24T10:05:14;14.00;99.90
4548;DHT22;2286;51.570;7.090;2023-03-24T10:07:49;14.00;99.90
4548;DHT22;2286;51.570;7.090;2023-03-24T10:15:18;14.10;99.90
4548;DHT22;2286;51.570;7.090;2023-03-24T10:17:52;14.00;99.90
4548;DHT22;2286;51.570;7.090;2023-03-24T10:20:30;13.80;99.90
4548;DHT22;2286;51.570;7.090;2023-03-24T10:23:07;13.80;99.90
4548;DHT22;2286;51.570;7.090;2023-03-24T10:25:44;14.00;99.90
4548;DHT22;2286;51.570;7.090;2023-03-24T10:28:19;14.10;99.90
4548;DHT22;2286;51.570;7.090;2023-03-24T10:30:47;14.30;99.90
4548;DHT22;2286;51.570;7.090;2023-03-24T10:33:16;14.20;99.90
4548;DHT22;2286;51.570;7.090;2023-03-24T10:35:49;14.40;99.90
4548;DHT22;2286;51.570;7.090;2023-03-24T10:38:20;14.60;99.90
4548;DHT22;2286;51.570;7.090;2023-03-24T10:40:48;14.50;99.90
4548;DHT22;2286;51.570;7.090;2023-03-24T10:43:16;14.40;99.90
4548;DHT22;2286;51.570;7.090;2023-03-24T10:45:46;14.30;99.90
4548;DHT22;2286;51.570;7.090;2023-03-24T10:48:33;14.30;99.90
4548;DHT22;2286;51.570;7.090;2023-03-24T10:51:00;14.50;99.90
4548;DHT22;2286;51.570;7.090;2023-03-24T10:53:29;14.90;99.90
4548;DHT22;2286;51.570;7.090;2023-03-24T10:55:56;15.80;99.90
4548;DHT22;2286;51.570;7.090;2023-03-24T10:58:29;16.10;99.90
4548;DHT22;2286;51.570;7.090;2023-03-24T11:00:58;16.00;99.90
4548;DHT22;2286;51.570;7.090;2023-03-24T11:03:27;16.20;99.90
4548;DHT22;2286;51.570;7.090;2023-03-24T11:05:59;16.10;99.90
4548;DHT22;2286;51.570;7.090;2023-03-24T11:08:33;15.20;99.90
4548;DHT22;2286;51.570;7.090;2023-03-24T11:11:00;15.00;99.90
4548;DHT22;2286;51.570;7.090;2023-03-24T11:13:38;14.90;99.90
4548;DHT22;2286;51.570;7.090;2023-03-24T11:16:10;14.70;99.90
4548;DHT22;2286;51.570;7.090;2023-03-24T11:18:53;14.20;99.90
4548;DHT22;2286;51.570;7.090;2023-03-24T11:21:21;14.00;99.90
4548;DHT22;2286;51.570;7.090;2023-03-24T11:23:50;13.90;99.90
4548;DHT22;2286;51.570;7.090;2023-03-24T11:26:18;14.00;99.90
4548;DHT22;2286;51.570;7.090;2023-03-24T11:28:50;14.10;99.90
4548;DHT22;2286;51.570;7.090;2023-03-24T11:31:21;13.90;99.90
4548;DHT22;2286;51.570;7.090;2023-03-24T11:33:55;14.70;99.90
4548;DHT22;2286;51.570;7.090;2023-03-24T11:36:40;15.80;99.90
4548;DHT22;2286;51.570;7.090;2023-03-24T11:39:16;16.90;99.90
4548;DHT22;2286;51.570;7.090;2023-03-24T11:41:51;17.50;99.90
4548;DHT22;2286;51.570;7.090;2023-03-24T11:44:20;17.50;99.90
4548;DHT22;2286;51.570;7.090;2023-03-24T11:46:50;18.30;99.90
4548;DHT22;2286;51.570;7.090;2023-03-24T11:49:21;18.40;99.90
4548;DHT22;2286;51.570;7.090;2023-03-24T11:51:53;18.50;99.90
4548;DHT22;2286;51.570;7.090;2023-03-24T11:54:25;18.30;99.90
4548;DHT22;2286;51.570;7.090;2023-03-24T11:56:55;17.60;99.90
4548;DHT22;2286;51.570;7.090;2023-03-24T11:59:30;17.50;99.90
4548;DHT22;2286;51.570;7.090;2023-03-24T12:02:09;16.60;99.90
4548;DHT22;2286;51.570;7.090;2023-03-24T12:05:02;16.30;99.90
4548;DHT22;2286;51.570;7.090;2023-03-24T12:08:07;16.10;99.90
4548;DHT22;2286;51.570;7.090;2023-03-24T12:10:47;16.10;99.90
4548;DHT22;2286;51.570;7.090;2023-03-24T12:13:20;17.80;99.90
4548;DHT22;2286;51.570;7.090;2023-03-24T12:16:05;17.80;99.90
4548;DHT22;2286;51.570;7.090;2023-03-24T12:18:46;17.80;99.90
4548;DHT22;2286;51.570;7.090;2023-03-24T12:21:25;17.00;99.90
4548;DHT22;2286;51.570;7.090;2023-03-24T12:23:59;16.20;99.90
4548;DHT22;2286;51.570;7.090;2023-03-24T12:26:31;15.80;99.90
4548;DHT22;2286;51.570;7.090;2023-03-24T12:29:25;15.50;99.90
4548;DHT22;2286;51.570;7.090;2023-03-24T12:32:13;15.30;99.90
4548;DHT22;2286;51.570;7.090;2023-03-24T12:37:47;16.30;99.90
4548;DHT22;2286;51.570;7.090;2023-03-24T12:40:37;16.70;99.90
4548;DHT22;2286;51.570;7.090;2023-03-24T12:43:18;17.50;99.90
4548;DHT22;2286;51.570;7.090;2023-03-24T12:45:51;19.00;99.90
4548;DHT22;2286;51.570;7.090;2023-03-24T12:48:37;19.80;99.90
4548;DHT22;2286;51.570;7.090;2023-03-24T12:51:18;19.40;99.90
4548;DHT22;2286;51.570;7.090;2023-03-24T12:53:57;19.20;99.90
4548;DHT22;2286;51.570;7.090;2023-03-24T12:56:33;17.80;99.90
4548;DHT22;2286;51.570;7.090;2023-03-24T12:59:08;17.20;99.90
4548;DHT22;2286;51.570;7.090;2023-03-24T13:01:38;16.70;99.90
4548;DHT22;2286;51.570;7.090;2023-03-24T13:04:10;16.40;99.90
4548;DHT22;2286;51.570;7.090;2023-03-24T13:06:43;17.10;99.90
4548;DHT22;2286;51.570;7.090;2023-03-24T13:09:16;18.90;99.90
4548;DHT22;2286;51.570;7.090;2023-03-24T13:11:50;18.80;99.90
4548;DHT22;2286;51.570;7.090;2023-03-24T13:14:24;17.80;99.90
4548;DHT22;2286;51.570;7.090;2023-03-24T13:16:58;17.00;99.90
4548;DHT22;2286;51.570;7.090;2023-03-24T13:19:26;16.30;99.90
4548;DHT22;2286;51.570;7.090;2023-03-24T13:21:54;16.00;99.90
4548;DHT22;2286;51.570;7.090;2023-03-24T13:24:22;16.40;99.90
4548;DHT22;2286;51.570;7.090;2023-03-24T13:26:56;16.60;99.90
4548;DHT22;2286;51.570;7.090;2023-03-24T13:29:54;16.70;99.90
4548;DHT22;2286;51.570;7.090;2023-03-24T13:32:29;16.30;99.90
4548;DHT22;2286;51.570;7.090;2023-03-24T13:35:00;16.30;99.90
4548;DHT22;2286;51.570;7.090;2023-03-24T13:37:35;16.10;99.90
4548;DHT22;2286;51.570;7.090;2023-03-24T13:40:08;16.10;99.90
4548;DHT22;2286;51.570;7.090;2023-03-24T13:42:42;15.70;99.90
4548;DHT22;2286;51.570;7.090;2023-03-24T13:45:25;15.30;99.90
4548;DHT22;2286;51.570;7.090;2023-03-24T13:48:03;14.90;99.90
4548;DHT22;2286;51.570;7.090;2023-03-24T13:50:31;14.60;99.90
4548;DHT22;2286;51.570;7.090;2023-03-24T13:53:04;14.40;99.90
4548;DHT22;2286;51.570;7.090;2023-03-24T13:55:35;13.70;99.90
4548;DHT22;2286;51.570;7.090;2023-03-24T13:58:07;13.40;99.90
4548;DHT22;2286;51.570;7.090;2023-03-24T14:03:38;16.10;99.90
4548;DHT22;2286;51.570;7.090;2023-03-24T14:06:07;17.00;99.90
4548;DHT22;2286;51.570;7.090;2023-03-24T14:08:41;17.30;99.90
4548;DHT22;2286;51.570;7.090;2023-03-24T14:11:43;18.60;99.90
4548;DHT22;2286;51.570;7.090;2023-03-24T14:14:20;18.40;99.90
4548;DHT22;2286;51.570;7.090;2023-03-24T14:17:00;17.80;99.90
4548;DHT22;2286;51.570;7.090;2023-03-24T14:19:31;17.50;99.90
4548;DHT22;2286;51.570;7.090;2023-03-24T14:22:09;16.70;99.90
4548;DHT22;2286;51.570;7.090;2023-03-24T14:24:39;15.80;99.90
4548;DHT22;2286;51.570;7.090;2023-03-24T14:27:32;15.10;99.90
4548;DHT22;2286;51.570;7.090;2023-03-24T14:30:02;14.20;99.90
4548;DHT22;2286;51.570;7.090;2023-03-24T14:32:37;13.60;99.90
4548;DHT22;2286;51.570;7.090;2023-03-24T14:35:22;12.80;99.90
4548;DHT22;2286;51.570;7.090;2023-03-24T14:37:53;11.60;1.00
4548;DHT22;2286;51.570;7.090;2023-03-24T14:40:25;11.40;1.00
4548;DHT22;2286;51.570;7.090;2023-03-24T14:43:01;12.30;99.90
4548;DHT22;2286;51.570;7.090;2023-03-24T14:45:54;13.40;1.00
4548;DHT22;2286;51.570;7.090;2023-03-24T14:48:33;14.60;99.90
4548;DHT22;2286;51.570;7.090;2023-03-24T14:51:07;14.70;1.00
4548;DHT22;2286;51.570;7.090;2023-03-24T14:53:38;13.90;1.00
4548;DHT22;2286;51.570;7.090;2023-03-24T14:56:11;13.20;1.00
4548;DHT22;2286;51.570;7.090;2023-03-24T14:58:40;12.60;1.00
4548;DHT22;2286;51.570;7.090;2023-03-24T15:01:09;12.20;1.00
4548;DHT22;2286;51.570;7.090;2023-03-24T15:03:41;12.00;1.00
4548;DHT22;2286;51.570;7.090;2023-03-24T15:06:16;11.80;1.10
4548;DHT22;2286;51.570;7.090;2023-03-24T15:08:45;11.70;99.90
4548;DHT22;2286;51.570;7.090;2023-03-24T15:11:16;12.50;1.00
4548;DHT22;2286;51.570;7.090;2023-03-24T15:13:47;13.90;1.00
4548;DHT22;2286;51.570;7.090;2023-03-24T15:16:20;14.10;1.00
4548;DHT22;2286;51.570;7.090;2023-03-24T15:18:49;13.70;1.00
4548;DHT22;2286;51.570;7.090;2023-03-24T15:21:24;13.50;1.00
4548;DHT22;2286;51.570;7.090;2023-03-24T15:23:53;13.20;1.00
4548;DHT22;2286;51.570;7.090;2023-03-24T15:26:21;12.90;1.00
4548;DHT22;2286;51.570;7.090;2023-03-24T15:28:54;12.70;1.00
4548;DHT22;2286;51.570;7.090;2023-03-24T15:31:22;12.60;1.00
4548;DHT22;2286;51.570;7.090;2023-03-24T15:33:50;12.60;1.00
4548;DHT22;2286;51.570;7.090;2023-03-24T15:36:22;12.60;1.00
4548;DHT22;2286;51.570;7.090;2023-03-24T15:38:50;12.50;1.00
4548;DHT22;2286;51.570;7.090;2023-03-24T15:41:20;12.60;1.00
4548;DHT22;2286;51.570;7.090;2023-03-24T15:43:51;12.60;1.00
4548;DHT22;2286;51.570;7.090;2023-03-24T15:46:24;12.60;1.00
4548;DHT22;2286;51.570;7.090;2023-03-24T15:48:52;12.60;1.00
4548;DHT22;2286;51.570;7.090;2023-03-24T15:51:43;12.60;1.00
4548;DHT22;2286;51.570;7.090;2023-03-24T15:54:20;12.50;1.00
4548;DHT22;2286;51.570;7.090;2023-03-24T15:57:14;12.50;1.00
4548;DHT22;2286;51.570;7.090;2023-03-24T15:59:44;12.40;1.00
4548;DHT22;2286;51.570;7.090;2023-03-24T16:02:23;12.40;1.00
4548;DHT22;2286;51.570;7.090;2023-03-24T16:04:54;12.40;1.00
4548;DHT22;2286;51.570;7.090;2023-03-24T16:07:25;12.30;1.00
4548;DHT22;2286;51.570;7.090;2023-03-24T16:09:58;12.10;99.90
4548;DHT22;2286;51.570;7.090;2023-03-24T16:12:32;12.00;99.90
4548;DHT22;2286;51.570;7.090;2023-03-24T16:15:00;11.90;99.90
4548;DHT22;2286;51.570;7.090;2023-03-24T16:17:30;11.90;55.10
4548;DHT22;2286;51.570;7.090;2023-03-24T16:19:58;11.80;24.10
4548;DHT22;2286;51.570;7.090;2023-03-24T16:22:25;11.90;1.00
4548;DHT22;2286;51.570;7.090;2023-03-24T16:24:53;12.00;1.00
4548;DHT22;2286;51.570;7.090;2023-03-24T16:27:22;12.00;1.00
4548;DHT22;2286;51.570;7.090;2023-03-24T16:29:49;12.00;1.00
4548;DHT22;2286;51.570;7.090;2023-03-24T16:32:17;12.00;1.00
4548;DHT22;2286;51.570;7.090;2023-03-24T16:34:44;12.00;1.00
4548;DHT22;2286;51.570;7.090;2023-03-24T16:37:11;12.50;1.00
4548;DHT22;2286;51.570;7.090;2023-03-24T16:39:39;14.20;1.00
4548;DHT22;2286;51.570;7.090;2023-03-24T16:42:06;15.80;99.90
4548;DHT22;2286;51.570;7.090;2023-03-24T16:44:35;16.50;99.90
4548;DHT22;2286;51.570;7.090;2023-03-24T16:47:03;16.10;99.90
4548;DHT22;2286;51.570;7.090;2023-03-24T16:49:34;15.10;99.90
4548;DHT22;2286;51.570;7.090;2023-03-24T16:52:03;14.80;99.90
4548;DHT22;2286;51.570;7.090;2023-03-24T16:54:30;15.90;99.90